Southern Utah University
, Cedar City
Last Weather Update:11/25/2011 8:00:00 AM
Date
ETo
ETc
Rain
Irrigation
Req
Temp
Max
Temp
Min
Temp
Avg
Avg RH
Avg Wind
Avg Solar
inches
inches
incehs
inches
F
F
F
%
%
watts/m2
10/1/2011 0.19" 0.11" 0.00" 0.11" 77.5° 54.7° 67.7° 36.6% 5.5 MPH 224.2w/m2
10/2/2011 0.16" 0.09" 0.00" 0.09" 77.2° 50.7° 64.8° 41.2% 3.3 MPH 215.2w/m2
10/3/2011 0.14" 0.08" 0.00" 0.08" 76.9° 55.3° 63.8° 44.8% 5.2 MPH 149.7w/m2
10/4/2011 0.10" 0.05" 0.02" 0.04" 64.6° 47.9° 56.0° 69.1% 5.9 MPH 143.2w/m2
10/5/2011 0.08" 0.04" 0.66" -0.49" 54.2° 40.9° 49.9° 63.9% 10.3 MPH 69.4w/m2
10/6/2011 0.06" 0.03" 0.48" -0.36" 45.0° 33.3° 38.3° 78.6% 3.6 MPH 108.7w/m2
10/7/2011 0.08" 0.04" 0.00" 0.04" 49.7° 29.0° 38.7° 63.1% 1.7 MPH 177.0w/m2
10/8/2011 0.06" 0.03" 0.02" 0.01" 52.3° 37.4° 43.0° 72.1% 3.6 MPH 125.3w/m2
10/9/2011 0.11" 0.05" 0.00" 0.05" 59.9° 31.8° 44.4° 63.9% 2.3 MPH 218.5w/m2
10/10/2011 0.12" 0.05" 0.00" 0.05" 63.8° 37.3° 50.8° 49.4% 3.5 MPH 191.6w/m2
10/11/2011 0.13" 0.05" 0.00" 0.05" 69.9° 42.2° 56.1° 47.5% 2.9 MPH 200.7w/m2
10/12/2011 0.13" 0.05" 0.00" 0.05" 70.7° 40.2° 53.6° 50.3% 2.9 MPH 206.1w/m2
10/13/2011 0.12" 0.04" 0.00" 0.04" 77.8° 40.9° 57.4° 35.3% 2.3 MPH 202.7w/m2
10/14/2011 0.14" 0.04" 0.00" 0.04" 80.6° 48.0° 63.4° 32.4% 2.6 MPH 197.1w/m2
10/15/2011 0.16" 0.05" 0.00" 0.05" 80.0° 48.6° 64.1° 27.7% 4.0 MPH 198.5w/m2
10/16/2011 0.16" 0.05" 0.00" 0.05" 75.7° 48.1° 62.7° 30.4% 4.1 MPH 197.9w/m2
10/17/2011 0.13" 0.04" 0.00" 0.04" 63.7° 41.1° 53.6° 43.5% 4.8 MPH 200.3w/m2
10/18/2011 0.10" 0.03" 0.00" 0.03" 66.7° 33.8° 48.8° 42.3% 2.0 MPH 194.6w/m2
10/19/2011 0.14" 0.03" 0.00" 0.03" 73.5° 37.7° 54.5° 36.6% 3.7 MPH 196.3w/m2
10/20/2011 0.12" 0.02" 0.00" 0.02" 71.4° 39.9° 54.9° 35.2% 2.4 MPH 193.0w/m2
10/21/2011 0.12" 0.02" 0.00" 0.02" 72.4° 42.9° 56.8° 31.3% 2.7 MPH 190.9w/m2
10/22/2011 0.12" 0.02" 0.00" 0.02" 70.5° 39.6° 54.8° 35.5% 2.7 MPH 189.6w/m2
10/23/2011 0.11" 0.02" 0.00" 0.02" 72.5° 37.8° 54.2° 36.4% 2.0 MPH 190.4w/m2
10/24/2011 0.16" 0.02" 0.00" 0.02" 70.2° 45.8° 58.2° 29.8% 5.9 MPH 183.2w/m2
10/25/2011 0.13" 0.01" 0.18" -0.13" 66.1° 40.1° 57.4° 43.3% 6.5 MPH 131.1w/m2
10/26/2011 0.05" 0.00" 0.22" -0.17" 42.2° 31.3° 35.5° 77.6% 6.0 MPH 108.4w/m2
10/27/2011 0.08" 0.01" 0.00" 0.01" 50.9° 23.8° 35.8° 55.1% 2.0 MPH 179.0w/m2
10/28/2011 0.08" 0.00" 0.00" 0.00" 57.3° 27.2° 40.3° 52.6% 2.3 MPH 179.8w/m2
10/29/2011 0.10" 0.00" 0.00" 0.00" 65.0° 35.0° 47.5° 39.2% 2.5 MPH 174.8w/m2
10/30/2011 0.09" 0.00" 0.00" 0.00" 64.5° 33.2° 47.6° 44.0% 2.3 MPH 175.0w/m2
10/31/2011 0.10" 0.00" 0.00" 0.00" 70.0° 38.9° 52.3° 40.1% 3.0 MPH 171.9w/m2
Totals: 3.55" 1.07" 1.58" -0.19" 80.6° 23.8° 52.5° 46.7% 3.7 MPH 176.9w/m2